Home   Weather   USA   Loma Linda   Past weeks
Flag for USA

Past Weather in Loma Linda, California, USA — Yesterday and Last 2 Weeks

Currently: 88 °F. Sunny. (Weather station: Norton Air Force Base / San Bern, USA). See more current weather

Past Weather in Loma Linda — Graph

°F

Loma Linda Temperature Yesterday

Maximum temperature yesterday: 86 °F (at 3:59 pm)
Minimum temperature yesterday: 60 °F (at 4:20 am)
Average temperature yesterday: 67 °F

High & Low Weather Summary for the Past Weeks

 TemperatureHumidityPressure
High97 °F (Jun 15, 3:53 pm)88% (Jun 13, 7:00 am)30.01 "Hg (Jun 13, 7:00 am)
Low58 °F (Jun 10, 4:20 am)17% (Jun 12, 3:53 pm)29.69 "Hg (Jun 16, 3:55 pm)
Average70 °F59%29.87 "Hg
* Reported Jun 5 2:50 pm — Jun 20 2:00 pm, Loma Linda. Weather by CustomWeather, © 2024

Note: Actual official high and low records may vary slightly from our data, if they occured in-between our weather recording intervals... More about our weather records

Loma Linda Weather History for the Previous 24 Hours

Scroll right to see more
 ConditionsComfort  
Time TempWeatherWind HumidityBarometerVisibility
2:00 pm
Thu, Jun 20
88 °FSunny.7 mph19%29.80 "Hg5 mi
11:51 am82 °FSunny.No wind30%29.83 "Hg4 mi
10:54 am79 °FSunny.5 mph39%29.83 "Hg4 mi
8:55 am70 °FSunny.No wind60%29.84 "Hg4 mi
7:54 am64 °FSunny.No wind73%29.83 "Hg4 mi
7:00 am63 °FSunny.No wind73%29.83 "Hg4 mi
5:40 am61 °FSunny.3 mph77%29.82 "Hg7 mi
5:20 am61 °FClear.No wind78%29.82 "Hg7 mi
5:00 am62 °FClear.No wind77%29.81 "Hg10 mi
4:20 am61 °FClear.3 mph78%29.81 "Hg10 mi
4:00 am62 °FClear.No wind77%29.81 "Hg10 mi
3:40 am62 °FClear.No wind77%29.81 "Hg10 mi
3:20 am62 °FClear.3 mph77%29.81 "Hg10 mi
3:00 am62 °FClear.No wind77%29.82 "Hg10 mi
2:20 am62 °FClear.5 mph76%29.82 "Hg10 mi
2:00 am63 °FClear.5 mph74%29.83 "Hg10 mi
1:20 am64 °FClear.3 mph73%29.84 "Hg10 mi
1:00 am64 °FClear.3 mph72%29.84 "Hg10 mi
12:20 am64 °FClear.5 mph71%29.85 "Hg10 mi
12:00 am65 °FClear.6 mph69%29.85 "Hg10 mi
11:40 pm
Wed, Jun 19
66 °FClear.8 mph68%29.86 "Hg10 mi
11:20 pm67 °FClear.7 mph66%29.86 "Hg10 mi
11:00 pm67 °FClear.5 mph64%29.86 "Hg10 mi
10:40 pm68 °FClear.7 mph63%29.86 "Hg10 mi
10:20 pm68 °FClear.6 mph61%29.86 "Hg10 mi
10:00 pm69 °FClear.7 mph58%29.85 "Hg10 mi
9:40 pm70 °FClear.8 mph57%29.85 "Hg10 mi
8:59 pm72 °FClear.7 mph53%29.84 "Hg10 mi
7:58 pm75 °FSunny.9 mph47%29.82 "Hg10 mi
5:54 pm82 °FSunny.14 mph30%29.81 "Hg6 mi
3:59 pm86 °FSunny.12 mph25%29.81 "Hg6 mi
Weather by CustomWeather, © 2024

See weather overview